sensor_id;sensor_type;location;lat;lon;timestamp;pressure;altitude;pressure_sealevel;temperature;humidity
11223;BME280;5668;52.012;8.724;2023-06-26T00:01:42;99999.28;;;25.21;71.74
11223;BME280;5668;52.012;8.724;2023-06-26T00:04:09;99995.44;;;25.17;72.03
11223;BME280;5668;52.012;8.724;2023-06-26T00:06:40;99995.00;;;25.14;71.69
11223;BME280;5668;52.012;8.724;2023-06-26T00:09:08;99992.97;;;25.16;71.71
11223;BME280;5668;52.012;8.724;2023-06-26T00:11:35;99997.06;;;25.12;71.86
11223;BME280;5668;52.012;8.724;2023-06-26T00:14:04;99995.47;;;25.11;72.29
11223;BME280;5668;52.012;8.724;2023-06-26T00:16:32;99995.47;;;25.11;72.06
11223;BME280;5668;52.012;8.724;2023-06-26T00:18:59;99988.06;;;25.13;71.69
11223;BME280;5668;52.012;8.724;2023-06-26T00:21:26;99990.50;;;25.14;71.24
11223;BME280;5668;52.012;8.724;2023-06-26T00:23:54;99985.41;;;25.13;71.57
11223;BME280;5668;52.012;8.724;2023-06-26T00:26:21;99989.69;;;25.14;71.27
11223;BME280;5668;52.012;8.724;2023-06-26T00:28:50;99987.66;;;25.16;71.20
11223;BME280;5668;52.012;8.724;2023-06-26T00:31:18;99979.66;;;25.16;70.70
11223;BME280;5668;52.012;8.724;2023-06-26T00:33:46;99977.84;;;25.10;70.86
11223;BME280;5668;52.012;8.724;2023-06-26T00:36:13;99980.53;;;25.03;70.93
11223;BME280;5668;52.012;8.724;2023-06-26T00:38:40;99981.53;;;24.89;72.09
11223;BME280;5668;52.012;8.724;2023-06-26T00:41:07;99977.91;;;24.77;73.16
11223;BME280;5668;52.012;8.724;2023-06-26T00:43:38;99975.44;;;24.68;73.46
11223;BME280;5668;52.012;8.724;2023-06-26T00:46:09;99977.50;;;24.60;74.06
11223;BME280;5668;52.012;8.724;2023-06-26T00:48:41;99978.75;;;24.51;75.18
11223;BME280;5668;52.012;8.724;2023-06-26T00:51:08;99973.44;;;24.51;75.13
11223;BME280;5668;52.012;8.724;2023-06-26T00:53:36;99971.38;;;24.59;74.36
11223;BME280;5668;52.012;8.724;2023-06-26T00:56:05;99968.69;;;24.66;73.34
11223;BME280;5668;52.012;8.724;2023-06-26T00:58:33;99967.06;;;24.72;72.77
11223;BME280;5668;52.012;8.724;2023-06-26T01:01:00;99962.97;;;24.76;72.54
11223;BME280;5668;52.012;8.724;2023-06-26T01:03:28;99961.94;;;24.77;72.44
11223;BME280;5668;52.012;8.724;2023-06-26T01:05:59;99958.47;;;24.76;72.08
11223;BME280;5668;52.012;8.724;2023-06-26T01:08:27;99943.97;;;24.72;72.08
11223;BME280;5668;52.012;8.724;2023-06-26T01:10:55;99951.53;;;24.62;71.95
11223;BME280;5668;52.012;8.724;2023-06-26T01:13:23;99946.44;;;24.47;73.53
11223;BME280;5668;52.012;8.724;2023-06-26T01:15:52;99949.94;;;24.35;74.09
11223;BME280;5668;52.012;8.724;2023-06-26T01:18:20;99953.22;;;24.23;74.59
11223;BME280;5668;52.012;8.724;2023-06-26T01:20:47;99949.91;;;24.15;75.26
11223;BME280;5668;52.012;8.724;2023-06-26T01:23:22;99950.09;;;24.07;75.44
11223;BME280;5668;52.012;8.724;2023-06-26T01:26:09;99940.28;;;24.01;76.13
11223;BME280;5668;52.012;8.724;2023-06-26T01:28:38;99941.31;;;23.93;76.53
11223;BME280;5668;52.012;8.724;2023-06-26T01:31:07;99934.16;;;23.87;76.27
11223;BME280;5668;52.012;8.724;2023-06-26T01:33:35;99934.97;;;23.87;76.52
11223;BME280;5668;52.012;8.724;2023-06-26T01:36:04;99925.56;;;23.91;75.97
11223;BME280;5668;52.012;8.724;2023-06-26T01:38:31;99925.59;;;23.98;75.66
11223;BME280;5668;52.012;8.724;2023-06-26T01:40:59;99923.97;;;23.97;75.33
11223;BME280;5668;52.012;8.724;2023-06-26T01:43:31;99923.53;;;23.87;75.96
11223;BME280;5668;52.012;8.724;2023-06-26T01:46:06;99918.22;;;23.80;75.89
11223;BME280;5668;52.012;8.724;2023-06-26T01:48:43;99918.41;;;23.72;77.06
11223;BME280;5668;52.012;8.724;2023-06-26T01:51:13;99917.59;;;23.72;76.43
11223;BME280;5668;52.012;8.724;2023-06-26T01:53:45;99911.91;;;23.75;76.26
11223;BME280;5668;52.012;8.724;2023-06-26T01:56:15;99913.75;;;23.81;75.96
11223;BME280;5668;52.012;8.724;2023-06-26T01:58:47;99908.25;;;23.89;75.72
11223;BME280;5668;52.012;8.724;2023-06-26T02:01:14;99910.88;;;23.96;75.02
11223;BME280;5668;52.012;8.724;2023-06-26T02:03:42;99913.94;;;23.99;74.92
11223;BME280;5668;52.012;8.724;2023-06-26T02:06:09;99912.53;;;24.03;74.27
11223;BME280;5668;52.012;8.724;2023-06-26T02:08:36;99902.91;;;24.02;73.87
11223;BME280;5668;52.012;8.724;2023-06-26T02:11:04;99907.84;;;24.05;74.16
11223;BME280;5668;52.012;8.724;2023-06-26T02:13:31;99901.09;;;24.03;73.48
11223;BME280;5668;52.012;8.724;2023-06-26T02:15:59;99894.75;;;24.04;73.75
11223;BME280;5668;52.012;8.724;2023-06-26T02:18:26;99895.34;;;23.99;73.66
11223;BME280;5668;52.012;8.724;2023-06-26T02:20:54;99892.09;;;23.97;73.35
11223;BME280;5668;52.012;8.724;2023-06-26T02:23:21;99891.28;;;23.90;73.63
11223;BME280;5668;52.012;8.724;2023-06-26T02:25:48;99892.09;;;23.90;73.85
11223;BME280;5668;52.012;8.724;2023-06-26T02:28:15;99883.91;;;23.92;74.02
11223;BME280;5668;52.012;8.724;2023-06-26T02:30:42;99881.50;;;23.97;73.36
11223;BME280;5668;52.012;8.724;2023-06-26T02:33:11;99888.22;;;24.00;73.29
11223;BME280;5668;52.012;8.724;2023-06-26T02:35:38;99877.38;;;24.01;73.29
11223;BME280;5668;52.012;8.724;2023-06-26T02:38:05;99885.16;;;24.03;73.15
11223;BME280;5668;52.012;8.724;2023-06-26T02:40:32;99874.53;;;24.03;72.74
11223;BME280;5668;52.012;8.724;2023-06-26T02:43:00;99876.56;;;24.01;72.55
11223;BME280;5668;52.012;8.724;2023-06-26T02:45:27;99873.28;;;23.99;72.63
11223;BME280;5668;52.012;8.724;2023-06-26T02:47:54;99874.13;;;23.99;72.34
11223;BME280;5668;52.012;8.724;2023-06-26T02:50:23;99870.06;;;23.97;72.68
11223;BME280;5668;52.012;8.724;2023-06-26T02:52:50;99861.03;;;23.91;72.12
11223;BME280;5668;52.012;8.724;2023-06-26T02:55:18;99868.00;;;23.85;72.51
11223;BME280;5668;52.012;8.724;2023-06-26T02:57:46;99863.94;;;23.83;73.01
11223;BME280;5668;52.012;8.724;2023-06-26T03:02:49;99869.81;;;23.78;72.78
11223;BME280;5668;52.012;8.724;2023-06-26T03:05:16;99866.34;;;23.78;73.08
11223;BME280;5668;52.012;8.724;2023-06-26T03:07:45;99868.81;;;23.73;73.39
11223;BME280;5668;52.012;8.724;2023-06-26T03:10:13;99858.00;;;23.68;73.55
11223;BME280;5668;52.012;8.724;2023-06-26T03:12:41;99853.91;;;23.59;74.31
11223;BME280;5668;52.012;8.724;2023-06-26T03:15:08;99854.91;;;23.58;74.20
11223;BME280;5668;52.012;8.724;2023-06-26T03:17:37;99859.41;;;23.50;74.31
11223;BME280;5668;52.012;8.724;2023-06-26T03:20:06;99863.50;;;23.53;74.10
11223;BME280;5668;52.012;8.724;2023-06-26T03:22:35;99862.44;;;23.54;73.47
11223;BME280;5668;52.012;8.724;2023-06-26T03:25:04;99861.19;;;23.43;74.11
11223;BME280;5668;52.012;8.724;2023-06-26T03:27:31;99853.63;;;23.34;74.87
11223;BME280;5668;52.012;8.724;2023-06-26T03:29:59;99856.88;;;23.29;75.31
11223;BME280;5668;52.012;8.724;2023-06-26T03:32:26;99852.78;;;23.33;75.29
11223;BME280;5668;52.012;8.724;2023-06-26T03:34:53;99857.91;;;23.41;75.20
11223;BME280;5668;52.012;8.724;2023-06-26T03:37:20;99855.66;;;23.38;75.12
11223;BME280;5668;52.012;8.724;2023-06-26T03:39:48;99853.59;;;23.27;75.80
11223;BME280;5668;52.012;8.724;2023-06-26T03:42:16;99864.75;;;23.09;77.09
11223;BME280;5668;52.012;8.724;2023-06-26T03:44:43;99858.44;;;23.04;77.13
11223;BME280;5668;52.012;8.724;2023-06-26T03:47:10;99857.97;;;22.94;77.61
11223;BME280;5668;52.012;8.724;2023-06-26T03:49:38;99853.88;;;22.85;77.99
11223;BME280;5668;52.012;8.724;2023-06-26T03:52:06;99860.34;;;22.75;79.18
11223;BME280;5668;52.012;8.724;2023-06-26T03:54:33;99860.72;;;22.72;79.75
11223;BME280;5668;52.012;8.724;2023-06-26T03:57:00;99851.53;;;22.68;79.84
11223;BME280;5668;52.012;8.724;2023-06-26T03:59:29;99852.53;;;22.67;80.30
11223;BME280;5668;52.012;8.724;2023-06-26T04:01:56;99846.84;;;22.70;79.85
11223;BME280;5668;52.012;8.724;2023-06-26T04:04:23;99852.13;;;22.70;79.71
11223;BME280;5668;52.012;8.724;2023-06-26T04:06:51;99853.78;;;22.71;79.66
11223;BME280;5668;52.012;8.724;2023-06-26T04:09:18;99855.00;;;22.69;79.90
11223;BME280;5668;52.012;8.724;2023-06-26T04:11:45;99846.03;;;22.70;79.98
11223;BME280;5668;52.012;8.724;2023-06-26T04:14:12;99845.22;;;22.69;79.65
11223;BME280;5668;52.012;8.724;2023-06-26T04:16:41;99848.88;;;22.68;80.44
11223;BME280;5668;52.012;8.724;2023-06-26T04:19:08;99842.81;;;22.74;80.12
11223;BME280;5668;52.012;8.724;2023-06-26T04:21:36;99851.78;;;22.73;79.42
11223;BME280;5668;52.012;8.724;2023-06-26T04:24:03;99855.19;;;22.67;80.37
11223;BME280;5668;52.012;8.724;2023-06-26T04:26:31;99856.63;;;22.70;80.00
11223;BME280;5668;52.012;8.724;2023-06-26T04:28:58;99857.09;;;22.73;79.85
11223;BME280;5668;52.012;8.724;2023-06-26T04:31:25;99854.06;;;22.83;79.80
11223;BME280;5668;52.012;8.724;2023-06-26T04:33:54;99853.06;;;22.84;79.00
11223;BME280;5668;52.012;8.724;2023-06-26T04:36:21;99853.25;;;22.83;79.69
11223;BME280;5668;52.012;8.724;2023-06-26T04:38:48;99844.88;;;22.86;79.90
11223;BME280;5668;52.012;8.724;2023-06-26T04:41:16;99848.78;;;22.90;79.98
11223;BME280;5668;52.012;8.724;2023-06-26T04:43:43;99847.38;;;22.94;79.50
11223;BME280;5668;52.012;8.724;2023-06-26T04:46:10;99847.19;;;22.95;79.28
11223;BME280;5668;52.012;8.724;2023-06-26T04:48:37;99850.25;;;22.99;79.24
11223;BME280;5668;52.012;8.724;2023-06-26T04:51:06;99838.44;;;23.01;78.65
11223;BME280;5668;52.012;8.724;2023-06-26T04:53:33;99840.03;;;22.96;78.80
11223;BME280;5668;52.012;8.724;2023-06-26T04:56:00;99845.31;;;22.89;80.04
11223;BME280;5668;52.012;8.724;2023-06-26T04:58:27;99842.25;;;22.86;80.08
11223;BME280;5668;52.012;8.724;2023-06-26T05:00:54;99845.31;;;22.83;80.29
11223;BME280;5668;52.012;8.724;2023-06-26T05:03:22;99835.72;;;22.82;80.55
11223;BME280;5668;52.012;8.724;2023-06-26T05:05:49;99841.00;;;22.82;80.79
11223;BME280;5668;52.012;8.724;2023-06-26T05:08:20;99854.25;;;22.82;80.94
11223;BME280;5668;52.012;8.724;2023-06-26T05:10:48;99847.78;;;22.91;81.54
11223;BME280;5668;52.012;8.724;2023-06-26T05:13:16;99846.16;;;22.96;81.60
11223;BME280;5668;52.012;8.724;2023-06-26T05:15:45;99842.88;;;22.94;82.21
11223;BME280;5668;52.012;8.724;2023-06-26T05:18:12;99849.81;;;22.95;82.75
11223;BME280;5668;52.012;8.724;2023-06-26T05:20:40;99836.75;;;22.94;83.32
11223;BME280;5668;52.012;8.724;2023-06-26T05:23:08;99844.13;;;22.92;84.13
11223;BME280;5668;52.012;8.724;2023-06-26T05:25:39;99844.72;;;22.94;84.96
11223;BME280;5668;52.012;8.724;2023-06-26T05:28:07;99844.53;;;22.95;84.85
11223;BME280;5668;52.012;8.724;2023-06-26T05:30:36;99849.47;;;23.05;84.72
11223;BME280;5668;52.012;8.724;2023-06-26T05:33:04;99848.66;;;23.11;85.02
11223;BME280;5668;52.012;8.724;2023-06-26T05:35:33;99851.53;;;23.16;84.69
11223;BME280;5668;52.012;8.724;2023-06-26T05:38:01;99841.75;;;23.23;85.18
11223;BME280;5668;52.012;8.724;2023-06-26T05:40:28;99845.03;;;23.32;85.37
11223;BME280;5668;52.012;8.724;2023-06-26T05:42:57;99847.94;;;23.43;85.31
11223;BME280;5668;52.012;8.724;2023-06-26T05:45:25;99846.75;;;23.52;85.63
11223;BME280;5668;52.012;8.724;2023-06-26T05:47:52;99845.75;;;23.60;85.96
11223;BME280;5668;52.012;8.724;2023-06-26T05:50:20;99849.59;;;23.71;84.84
11223;BME280;5668;52.012;8.724;2023-06-26T05:52:48;99845.13;;;23.78;83.94
11223;BME280;5668;52.012;8.724;2023-06-26T05:55:16;99842.25;;;23.86;82.95
11223;BME280;5668;52.012;8.724;2023-06-26T05:57:43;99848.19;;;23.95;81.89
11223;BME280;5668;52.012;8.724;2023-06-26T06:00:14;99849.41;;;24.05;81.42
11223;BME280;5668;52.012;8.724;2023-06-26T06:02:42;99846.75;;;24.12;80.52
11223;BME280;5668;52.012;8.724;2023-06-26T06:05:10;99849.00;;;24.21;79.79
11223;BME280;5668;52.012;8.724;2023-06-26T06:07:38;99846.13;;;24.29;78.43
11223;BME280;5668;52.012;8.724;2023-06-26T06:10:06;99845.50;;;24.41;76.93
11223;BME280;5668;52.012;8.724;2023-06-26T06:12:34;99852.00;;;24.45;74.38
11223;BME280;5668;52.012;8.724;2023-06-26T06:15:01;99856.28;;;24.52;73.52
11223;BME280;5668;52.012;8.724;2023-06-26T06:17:29;99853.59;;;24.59;72.62
11223;BME280;5668;52.012;8.724;2023-06-26T06:19:57;99854.63;;;24.64;72.07
11223;BME280;5668;52.012;8.724;2023-06-26T06:22:24;99854.19;;;24.74;71.18
11223;BME280;5668;52.012;8.724;2023-06-26T06:24:51;99847.22;;;24.80;70.17
11223;BME280;5668;52.012;8.724;2023-06-26T06:27:18;99849.66;;;24.81;68.90
11223;BME280;5668;52.012;8.724;2023-06-26T06:29:46;99854.34;;;24.86;69.07
11223;BME280;5668;52.012;8.724;2023-06-26T06:32:13;99857.38;;;24.89;67.80
11223;BME280;5668;52.012;8.724;2023-06-26T06:34:41;99853.72;;;24.90;67.84
11223;BME280;5668;52.012;8.724;2023-06-26T06:37:09;99851.84;;;24.97;68.42
11223;BME280;5668;52.012;8.724;2023-06-26T06:39:36;99857.16;;;25.04;68.17
11223;BME280;5668;52.012;8.724;2023-06-26T06:42:03;99854.69;;;25.09;68.23
11223;BME280;5668;52.012;8.724;2023-06-26T06:44:31;99855.66;;;25.15;68.58
11223;BME280;5668;52.012;8.724;2023-06-26T06:46:58;99859.94;;;25.22;67.87
11223;BME280;5668;52.012;8.724;2023-06-26T06:49:25;99856.63;;;25.27;67.82
11223;BME280;5668;52.012;8.724;2023-06-26T06:51:54;99863.78;;;25.33;68.58
11223;BME280;5668;52.012;8.724;2023-06-26T06:54:21;99851.25;;;25.40;68.74
11223;BME280;5668;52.012;8.724;2023-06-26T06:56:48;99853.63;;;25.48;68.83
11223;BME280;5668;52.012;8.724;2023-06-26T06:59:15;99856.88;;;25.50;68.98
11223;BME280;5668;52.012;8.724;2023-06-26T07:01:43;99860.97;;;25.53;68.82
11223;BME280;5668;52.012;8.724;2023-06-26T07:04:10;99867.53;;;25.50;70.00
11223;BME280;5668;52.012;8.724;2023-06-26T07:06:37;99881.03;;;25.49;69.04
11223;BME280;5668;52.012;8.724;2023-06-26T07:09:05;99884.31;;;25.51;69.15
11223;BME280;5668;52.012;8.724;2023-06-26T07:11:33;99878.38;;;25.55;68.38
11223;BME280;5668;52.012;8.724;2023-06-26T07:14:00;99876.28;;;25.57;68.03
11223;BME280;5668;52.012;8.724;2023-06-26T07:16:27;99885.47;;;25.68;68.29
11223;BME280;5668;52.012;8.724;2023-06-26T07:18:54;99882.97;;;25.73;68.23
11223;BME280;5668;52.012;8.724;2023-06-26T07:21:21;99876.13;;;25.83;68.60
11223;BME280;5668;52.012;8.724;2023-06-26T07:23:49;99880.75;;;25.95;69.04
11223;BME280;5668;52.012;8.724;2023-06-26T07:26:17;99882.72;;;26.06;69.80
11223;BME280;5668;52.012;8.724;2023-06-26T07:28:44;99888.38;;;26.16;68.88
11223;BME280;5668;52.012;8.724;2023-06-26T07:31:12;99899.38;;;26.19;67.68
11223;BME280;5668;52.012;8.724;2023-06-26T07:33:39;99907.16;;;26.21;67.75
11223;BME280;5668;52.012;8.724;2023-06-26T07:36:06;99899.53;;;26.25;67.04
11223;BME280;5668;52.012;8.724;2023-06-26T07:38:33;99914.94;;;26.29;67.22
11223;BME280;5668;52.012;8.724;2023-06-26T07:41:01;99901.13;;;26.32;67.37
11223;BME280;5668;52.012;8.724;2023-06-26T07:43:29;99905.00;;;26.36;68.39
11223;BME280;5668;52.012;8.724;2023-06-26T07:45:57;99909.47;;;26.42;67.81
11223;BME280;5668;52.012;8.724;2023-06-26T07:48:24;99905.00;;;26.36;67.74
11223;BME280;5668;52.012;8.724;2023-06-26T07:50:52;99898.81;;;26.42;68.10
11223;BME280;5668;52.012;8.724;2023-06-26T07:53:19;99911.25;;;26.48;68.43
11223;BME280;5668;52.012;8.724;2023-06-26T07:55:47;99920.38;;;26.59;68.49
11223;BME280;5668;52.012;8.724;2023-06-26T07:58:14;99909.78;;;26.52;67.96
11223;BME280;5668;52.012;8.724;2023-06-26T08:00:42;99924.63;;;26.42;66.94
11223;BME280;5668;52.012;8.724;2023-06-26T08:03:10;99919.41;;;26.53;67.39
11223;BME280;5668;52.012;8.724;2023-06-26T08:05:37;99922.66;;;26.55;66.85
11223;BME280;5668;52.012;8.724;2023-06-26T08:08:04;99933.50;;;26.61;66.30
11223;BME280;5668;52.012;8.724;2023-06-26T08:10:32;99929.41;;;26.58;66.10
11223;BME280;5668;52.012;8.724;2023-06-26T08:13:00;99934.88;;;26.63;66.18
11223;BME280;5668;52.012;8.724;2023-06-26T08:15:27;99940.66;;;26.60;66.98
11223;BME280;5668;52.012;8.724;2023-06-26T08:17:56;99951.47;;;26.65;67.15
11223;BME280;5668;52.012;8.724;2023-06-26T08:20:23;99950.88;;;26.63;67.84
11223;BME280;5668;52.012;8.724;2023-06-26T08:22:50;99954.66;;;26.55;67.02
11223;BME280;5668;52.012;8.724;2023-06-26T08:25:18;99959.69;;;26.45;67.90
11223;BME280;5668;52.012;8.724;2023-06-26T08:27:46;99958.25;;;26.43;67.61
11223;BME280;5668;52.012;8.724;2023-06-26T08:30:14;99973.00;;;26.45;68.46
11223;BME280;5668;52.012;8.724;2023-06-26T08:32:41;99963.38;;;26.44;69.30
11223;BME280;5668;52.012;8.724;2023-06-26T08:35:09;99961.25;;;26.28;69.83
11223;BME280;5668;52.012;8.724;2023-06-26T08:37:37;99972.06;;;26.08;70.27
11223;BME280;5668;52.012;8.724;2023-06-26T08:40:06;99968.94;;;25.80;70.62
11223;BME280;5668;52.012;8.724;2023-06-26T08:42:34;99975.22;;;25.61;71.41
11223;BME280;5668;52.012;8.724;2023-06-26T08:45:01;99976.84;;;25.62;71.77
11223;BME280;5668;52.012;8.724;2023-06-26T08:47:30;99973.94;;;25.57;72.36
11223;BME280;5668;52.012;8.724;2023-06-26T08:50:07;99973.56;;;25.60;73.24
11223;BME280;5668;52.012;8.724;2023-06-26T08:52:43;99974.59;;;25.52;74.06
11223;BME280;5668;52.012;8.724;2023-06-26T08:55:13;99977.44;;;25.57;75.02
11223;BME280;5668;52.012;8.724;2023-06-26T08:57:42;99973.56;;;25.60;75.55
11223;BME280;5668;52.012;8.724;2023-06-26T09:00:10;99975.59;;;25.64;75.17
11223;BME280;5668;52.012;8.724;2023-06-26T09:02:41;99988.72;;;25.59;76.11
11223;BME280;5668;52.012;8.724;2023-06-26T09:05:08;99985.41;;;25.57;76.14
11223;BME280;5668;52.012;8.724;2023-06-26T09:07:38;99999.78;;;25.50;76.67
11223;BME280;5668;52.012;8.724;2023-06-26T09:10:06;100003.72;;;25.47;77.57
11223;BME280;5668;52.012;8.724;2023-06-26T09:12:36;100002.28;;;25.44;77.67
11223;BME280;5668;52.012;8.724;2023-06-26T09:15:04;100018.88;;;25.40;77.58
11223;BME280;5668;52.012;8.724;2023-06-26T09:17:38;100018.06;;;25.39;77.82
11223;BME280;5668;52.012;8.724;2023-06-26T09:20:06;100017.44;;;25.44;77.21
11223;BME280;5668;52.012;8.724;2023-06-26T09:22:40;100014.34;;;25.47;77.34
11223;BME280;5668;52.012;8.724;2023-06-26T09:25:08;100018.22;;;25.51;77.73
11223;BME280;5668;52.012;8.724;2023-06-26T09:27:36;100023.94;;;25.61;77.82
11223;BME280;5668;52.012;8.724;2023-06-26T09:30:04;100030.06;;;25.68;77.69
11223;BME280;5668;52.012;8.724;2023-06-26T09:32:34;100030.06;;;25.68;78.27
11223;BME280;5668;52.012;8.724;2023-06-26T09:35:03;100030.66;;;25.70;78.43
11223;BME280;5668;52.012;8.724;2023-06-26T09:37:30;100028.41;;;25.67;77.83
11223;BME280;5668;52.012;8.724;2023-06-26T09:39:59;100029.22;;;25.68;76.86
11223;BME280;5668;52.012;8.724;2023-06-26T09:42:28;100038.66;;;25.70;77.30
11223;BME280;5668;52.012;8.724;2023-06-26T09:44:56;100023.09;;;25.67;76.69
11223;BME280;5668;52.012;8.724;2023-06-26T09:47:23;100020.44;;;25.67;76.41
11223;BME280;5668;52.012;8.724;2023-06-26T09:49:50;100016.91;;;25.73;77.25
11223;BME280;5668;52.012;8.724;2023-06-26T09:52:18;100019.78;;;25.78;77.16
11223;BME280;5668;52.012;8.724;2023-06-26T09:54:46;100025.25;;;25.83;76.31
11223;BME280;5668;52.012;8.724;2023-06-26T09:57:16;100019.72;;;25.85;75.49
11223;BME280;5668;52.012;8.724;2023-06-26T09:59:45;100018.06;;;25.91;74.49
11223;BME280;5668;52.012;8.724;2023-06-26T10:02:12;100022.97;;;25.94;73.11
11223;BME280;5668;52.012;8.724;2023-06-26T10:04:39;100022.53;;;25.97;72.88
11223;BME280;5668;52.012;8.724;2023-06-26T10:07:08;100019.84;;;25.97;72.05
11223;BME280;5668;52.012;8.724;2023-06-26T10:09:41;100026.22;;;25.96;72.28
11223;BME280;5668;52.012;8.724;2023-06-26T10:12:13;100029.72;;;25.90;72.19
11223;BME280;5668;52.012;8.724;2023-06-26T10:14:45;100036.88;;;25.96;72.27
11223;BME280;5668;52.012;8.724;2023-06-26T10:17:18;100028.63;;;26.04;72.69
11223;BME280;5668;52.012;8.724;2023-06-26T10:19:48;100025.53;;;26.07;72.14
11223;BME280;5668;52.012;8.724;2023-06-26T10:22:17;100030.41;;;26.10;73.11
11223;BME280;5668;52.012;8.724;2023-06-26T10:24:48;100024.47;;;26.14;73.00
11223;BME280;5668;52.012;8.724;2023-06-26T10:27:18;100027.75;;;26.10;71.82
11223;BME280;5668;52.012;8.724;2023-06-26T10:29:50;100029.22;;;26.06;71.25
11223;BME280;5668;52.012;8.724;2023-06-26T10:32:21;100031.53;;;25.96;70.79
11223;BME280;5668;52.012;8.724;2023-06-26T10:34:50;100028.28;;;25.94;70.91
11223;BME280;5668;52.012;8.724;2023-06-26T10:37:18;100032.81;;;25.93;71.48
11223;BME280;5668;52.012;8.724;2023-06-26T10:39:50;100031.75;;;25.94;72.35
11223;BME280;5668;52.012;8.724;2023-06-26T10:42:17;100033.78;;;25.99;73.07
11223;BME280;5668;52.012;8.724;2023-06-26T10:44:47;100039.28;;;26.04;73.50
11223;BME280;5668;52.012;8.724;2023-06-26T10:47:29;100036.16;;;26.13;73.32
11223;BME280;5668;52.012;8.724;2023-06-26T10:50:09;100046.59;;;26.15;72.94
11223;BME280;5668;52.012;8.724;2023-06-26T10:52:43;100055.22;;;26.10;72.89
11223;BME280;5668;52.012;8.724;2023-06-26T10:55:11;100052.69;;;25.91;69.85
11223;BME280;5668;52.012;8.724;2023-06-26T10:57:38;100049.28;;;25.77;68.77
11223;BME280;5668;52.012;8.724;2023-06-26T11:00:15;100053.00;;;25.69;68.55
11223;BME280;5668;52.012;8.724;2023-06-26T11:02:49;100047.25;;;25.66;70.10
11223;BME280;5668;52.012;8.724;2023-06-26T11:05:27;100054.44;;;25.65;70.16
11223;BME280;5668;52.012;8.724;2023-06-26T11:08:05;100058.31;;;25.69;70.58
11223;BME280;5668;52.012;8.724;2023-06-26T11:10:49;100052.16;;;25.69;70.14
11223;BME280;5668;52.012;8.724;2023-06-26T11:13:18;100051.75;;;25.65;69.58
11223;BME280;5668;52.012;8.724;2023-06-26T11:15:48;100053.84;;;25.63;68.77
11223;BME280;5668;52.012;8.724;2023-06-26T11:18:16;100059.94;;;25.57;69.04
11223;BME280;5668;52.012;8.724;2023-06-26T11:20:44;100062.63;;;25.57;68.79
11223;BME280;5668;52.012;8.724;2023-06-26T11:23:11;100069.81;;;25.63;68.42
11223;BME280;5668;52.012;8.724;2023-06-26T11:25:39;100074.88;;;25.71;69.20
11223;BME280;5668;52.012;8.724;2023-06-26T11:28:09;100067.09;;;25.76;70.07
11223;BME280;5668;52.012;8.724;2023-06-26T11:30:36;100079.19;;;25.72;69.06
11223;BME280;5668;52.012;8.724;2023-06-26T11:33:09;100086.16;;;25.67;66.78
11223;BME280;5668;52.012;8.724;2023-06-26T11:35:37;100071.63;;;25.56;64.91
11223;BME280;5668;52.012;8.724;2023-06-26T11:38:04;100070.41;;;25.65;65.32
11223;BME280;5668;52.012;8.724;2023-06-26T11:40:33;100063.44;;;25.71;65.66
11223;BME280;5668;52.012;8.724;2023-06-26T11:43:01;100065.03;;;25.72;64.98
11223;BME280;5668;52.012;8.724;2023-06-26T11:45:30;100071.88;;;25.61;63.53
11223;BME280;5668;52.012;8.724;2023-06-26T11:47:58;100076.16;;;25.62;63.64
11223;BME280;5668;52.012;8.724;2023-06-26T11:50:27;100083.72;;;25.65;62.64
11223;BME280;5668;52.012;8.724;2023-06-26T11:52:55;100078.78;;;25.69;62.07
11223;BME280;5668;52.012;8.724;2023-06-26T11:55:24;100077.34;;;25.73;62.18
11223;BME280;5668;52.012;8.724;2023-06-26T11:57:54;100087.16;;;25.72;61.40
11223;BME280;5668;52.012;8.724;2023-06-26T12:00:22;100087.59;;;25.69;59.10
11223;BME280;5668;52.012;8.724;2023-06-26T12:02:49;100096.81;;;25.67;57.71
11223;BME280;5668;52.012;8.724;2023-06-26T12:05:18;100098.47;;;25.61;55.43
11223;BME280;5668;52.012;8.724;2023-06-26T12:07:47;100104.22;;;25.58;55.05
11223;BME280;5668;52.012;8.724;2023-06-26T12:10:16;100099.88;;;25.57;56.63
11223;BME280;5668;52.012;8.724;2023-06-26T12:12:45;100103.38;;;25.64;56.74
11223;BME280;5668;52.012;8.724;2023-06-26T12:15:15;100094.78;;;25.69;56.13
11223;BME280;5668;52.012;8.724;2023-06-26T12:17:43;100086.94;;;25.80;57.31
11223;BME280;5668;52.012;8.724;2023-06-26T12:20:18;100095.13;;;25.86;56.60
11223;BME280;5668;52.012;8.724;2023-06-26T12:22:48;100091.59;;;25.92;56.54
11223;BME280;5668;52.012;8.724;2023-06-26T12:25:16;100092.22;;;25.94;56.67
11223;BME280;5668;52.012;8.724;2023-06-26T12:27:48;100090.13;;;25.96;56.66
11223;BME280;5668;52.012;8.724;2023-06-26T12:30:16;100098.13;;;25.96;55.36
11223;BME280;5668;52.012;8.724;2023-06-26T12:32:45;100099.34;;;26.00;54.80
11223;BME280;5668;52.012;8.724;2023-06-26T12:35:13;100101.19;;;25.99;54.61
11223;BME280;5668;52.012;8.724;2023-06-26T12:37:43;100101.16;;;26.06;54.67
11223;BME280;5668;52.012;8.724;2023-06-26T12:40:20;100100.78;;;25.96;53.46
11223;BME280;5668;52.012;8.724;2023-06-26T12:42:49;100092.75;;;26.02;54.13
11223;BME280;5668;52.012;8.724;2023-06-26T12:45:16;100093.34;;;26.11;53.71
11223;BME280;5668;52.012;8.724;2023-06-26T12:47:43;100088.22;;;26.09;54.84
11223;BME280;5668;52.012;8.724;2023-06-26T12:50:12;100107.34;;;26.00;55.24
11223;BME280;5668;52.012;8.724;2023-06-26T12:52:40;100102.59;;;26.02;54.26
11223;BME280;5668;52.012;8.724;2023-06-26T12:55:08;100105.88;;;26.04;55.74
11223;BME280;5668;52.012;8.724;2023-06-26T12:57:37;100103.03;;;25.99;54.34
11223;BME280;5668;52.012;8.724;2023-06-26T13:00:05;100105.91;;;25.97;53.87
11223;BME280;5668;52.012;8.724;2023-06-26T13:02:33;100098.75;;;25.98;53.78
11223;BME280;5668;52.012;8.724;2023-06-26T13:05:00;100099.38;;;25.93;53.05
11223;BME280;5668;52.012;8.724;2023-06-26T13:07:27;100104.50;;;25.88;52.22
11223;BME280;5668;52.012;8.724;2023-06-26T13:09:56;100099.59;;;25.92;52.89
11223;BME280;5668;52.012;8.724;2023-06-26T13:12:23;100108.38;;;25.99;54.15
11223;BME280;5668;52.012;8.724;2023-06-26T13:14:51;100109.75;;;26.08;53.86
11223;BME280;5668;52.012;8.724;2023-06-26T13:17:18;100104.00;;;26.11;54.40